Alba, Texas
Current Conditions -  °F | °C
As of 6:15 PM on Wednesday 28 Jan 2015 (Local Time) from KJDD Reporting Station
Clear Clear  
Wind Chill: 73°   Ceiling: Unl
Heat Index: 73°   Visibility: 10mi
Dew Point: 39°   Wind: 6mph
Humidity: 29%   Direction: 170°S
Pressure: 30.03"   Gusts: NA
Location:  32.79°N, 95.63°W
Report Text: KJDD 290015Z AUTO 17005KT 10SM CLR 23/04 A3003 RMK AO2
Loading
Personal Weather Stations






























Interactive Weather Map New forecast layout! Learn more

10-Day Weather Forecast

Advertisements
Track Severe Weather on mobile